createdAt,value
2022-10-24T00:01:46.969Z,6.57
2022-10-24T00:06:47.817Z,7.53
2022-10-24T00:11:44.940Z,5.68
2022-10-24T00:16:42.487Z,6.18
2022-10-24T00:21:41.275Z,5.32
2022-10-24T00:26:38.528Z,6.05
2022-10-24T00:31:36.014Z,6.47
2022-10-24T00:36:40.962Z,6.60
2022-10-24T00:41:41.404Z,6.03
2022-10-24T00:46:38.754Z,7.07
2022-10-24T00:51:36.353Z,6.65
2022-10-24T00:56:37.589Z,4.88
2022-10-24T01:01:34.910Z,5.95
2022-10-24T01:06:46.505Z,5.18
2022-10-24T01:11:57.501Z,6.05
2022-10-24T01:17:05.064Z,6.43
2022-10-24T01:22:12.719Z,8.82
2022-10-24T01:27:40.524Z,7.72
2022-10-24T01:32:51.561Z,7.10
2022-10-24T01:37:57.532Z,8.27
2022-10-24T01:43:00.474Z,5.18
2022-10-24T01:48:01.796Z,7.68
2022-10-24T01:53:00.048Z,6.88
2022-10-24T01:57:57.096Z,7.97
2022-10-24T02:02:57.084Z,7.65
2022-10-24T02:08:02.655Z,7.50
2022-10-24T02:17:59.601Z,7.68
2022-10-24T02:23:03.642Z,8.50
2022-10-24T02:28:07.399Z,7.88
2022-10-24T02:33:05.683Z,6.55
2022-10-24T02:38:12.262Z,8.05
2022-10-24T02:43:12.881Z,7.53
2022-10-24T02:48:12.439Z,6.25
2022-10-24T02:53:13.091Z,6.03
2022-10-24T02:58:10.182Z,7.60
2022-10-24T03:03:07.143Z,7.15
2022-10-24T03:08:04.381Z,7.78
2022-10-24T03:13:03.088Z,8.23
2022-10-24T03:18:00.597Z,11.88
2022-10-24T03:22:57.583Z,14.43
2022-10-24T03:27:54.529Z,10.70
2022-10-24T03:32:52.193Z,9.23
2022-10-24T03:37:49.118Z,8.50
2022-10-24T03:42:46.204Z,8.23
2022-10-24T03:47:43.343Z,11.57
2022-10-24T03:52:43.849Z,8.95
2022-10-24T03:57:55.397Z,18.58
2022-10-24T04:02:55.441Z,8.32
2022-10-24T04:07:59.433Z,6.95
2022-10-24T04:12:56.875Z,16.85
2022-10-24T04:17:58.820Z,10.25
2022-10-24T04:22:57.672Z,10.65
2022-10-24T04:27:55.286Z,18.17
2022-10-24T04:32:59.206Z,32.55
2022-10-24T04:38:04.490Z,19.95
2022-10-24T04:43:01.385Z,18.75
2022-10-24T04:48:01.464Z,17.77
2022-10-24T04:53:01.852Z,18.85
2022-10-24T04:58:44.805Z,20.75
2022-10-24T05:03:44.287Z,32.33
2022-10-24T05:08:45.571Z,41.53
2022-10-24T05:14:00.461Z,39.25
2022-10-24T05:18:59.737Z,38.27
2022-10-24T05:23:59.859Z,35.35
2022-10-24T05:28:57.204Z,36.95
2022-10-24T05:34:02.697Z,33.40
2022-10-24T05:39:09.534Z,29.73
2022-10-24T05:44:12.686Z,24.73
2022-10-24T05:49:13.659Z,26.83
2022-10-24T05:54:13.889Z,27.15
2022-10-24T05:59:10.901Z,22.88
2022-10-24T06:04:10.079Z,25.95
2022-10-24T06:09:11.432Z,29.60
2022-10-24T06:14:08.587Z,35.33
2022-10-24T06:19:05.809Z,29.30
2022-10-24T06:24:08.795Z,22.90
2022-10-24T06:29:18.749Z,24.00
2022-10-24T06:34:16.366Z,23.40
2022-10-24T06:39:27.201Z,26.33
2022-10-24T06:44:25.326Z,18.80
2022-10-24T06:49:22.455Z,16.73
2022-10-24T06:54:24.118Z,17.65
2022-10-24T06:59:24.344Z,13.55
2022-10-24T07:04:21.404Z,24.67
2022-10-24T07:09:18.336Z,18.80
2022-10-24T07:14:15.165Z,25.25
2022-10-24T07:19:12.759Z,15.18
2022-10-24T07:24:12.187Z,20.52
2022-10-24T07:29:09.230Z,23.45
2022-10-24T07:34:08.286Z,20.65
2022-10-24T07:39:09.773Z,102.85
2022-10-24T07:49:33.801Z,20.27
2022-10-24T07:54:37.266Z,14.35
2022-10-24T07:59:42.954Z,19.05
2022-10-24T08:04:40.793Z,13.40
2022-10-24T08:09:54.564Z,15.80
2022-10-24T08:15:04.895Z,13.97
2022-10-24T08:20:02.248Z,10.45
2022-10-24T08:25:00.338Z,16.60
2022-10-24T08:29:58.686Z,10.65
2022-10-24T08:35:01.617Z,12.45
2022-10-24T08:39:59.501Z,9.25
2022-10-24T08:44:56.503Z,6.28
2022-10-24T08:50:04.523Z,7.40
2022-10-24T08:55:43.891Z,15.75
2022-10-24T09:01:10.607Z,5.43
2022-10-24T09:06:13.672Z,6.05
2022-10-24T09:11:26.375Z,4.28
2022-10-24T09:16:27.141Z,8.60
2022-10-24T09:21:27.271Z,6.10
2022-10-24T09:26:34.156Z,5.47
2022-10-24T09:31:38.206Z,8.80
2022-10-24T09:36:39.691Z,4.45
2022-10-24T09:41:46.590Z,4.20
2022-10-24T09:46:45.994Z,5.50
2022-10-24T09:51:47.219Z,5.07
2022-10-24T09:56:48.975Z,5.90
2022-10-24T10:01:48.878Z,6.43
2022-10-24T10:06:53.546Z,4.47
2022-10-24T10:12:05.531Z,3.83
2022-10-24T10:17:05.156Z,5.15
2022-10-24T10:22:05.007Z,6.20
2022-10-24T10:27:29.751Z,4.40
2022-10-24T10:32:33.202Z,4.35
2022-10-24T10:37:31.070Z,4.78
2022-10-24T10:42:36.245Z,10.13
2022-10-24T10:47:51.191Z,3.78
2022-10-24T10:52:49.513Z,4.53
2022-10-24T10:57:54.303Z,3.33
2022-10-24T11:03:02.995Z,5.72
2022-10-24T11:08:19.131Z,7.15
2022-10-24T11:13:23.363Z,5.25
2022-10-24T11:18:26.626Z,7.23
2022-10-24T11:23:35.753Z,5.28
2022-10-24T11:28:39.412Z,8.65
2022-10-24T11:33:46.620Z,7.30
2022-10-24T11:38:57.505Z,7.97
2022-10-24T11:44:23.544Z,8.38
2022-10-24T11:50:04.926Z,4.72
2022-10-24T11:55:15.602Z,7.38
2022-10-24T12:00:38.980Z,5.75
2022-10-24T12:06:23.018Z,9.90
2022-10-24T12:11:32.681Z,6.47
2022-10-24T12:17:17.199Z,9.40
2022-10-24T12:22:47.515Z,7.27
2022-10-24T12:27:45.056Z,9.20
2022-10-24T12:32:50.013Z,6.53
2022-10-24T12:37:58.088Z,10.35
2022-10-24T12:43:18.446Z,4.50
2022-10-24T12:48:29.349Z,5.38
2022-10-24T12:53:38.768Z,10.32
2022-10-24T12:58:49.460Z,6.13
2022-10-24T13:04:30.586Z,5.50
2022-10-24T13:09:38.247Z,5.68
2022-10-24T13:15:00.111Z,9.50
2022-10-24T13:20:17.208Z,4.68
2022-10-24T13:25:33.389Z,10.63
2022-10-24T13:30:37.904Z,3.55
2022-10-24T13:35:37.106Z,4.55
2022-10-24T13:40:47.698Z,8.77
2022-10-24T13:45:53.771Z,7.30
2022-10-24T13:51:05.756Z,9.77
2022-10-24T13:56:10.986Z,5.03
2022-10-24T14:01:28.806Z,8.02
2022-10-24T14:06:34.869Z,10.55
2022-10-24T14:11:35.274Z,7.47
2022-10-24T14:16:35.066Z,12.68
2022-10-24T14:21:44.660Z,14.27
2022-10-24T14:26:44.930Z,18.70
2022-10-24T14:32:08.110Z,11.88
2022-10-24T14:37:44.647Z,28.40
2022-10-24T14:42:51.590Z,36.40
2022-10-24T14:47:52.848Z,15.60
2022-10-24T14:52:58.233Z,20.55
2022-10-24T14:57:59.341Z,31.73
2022-10-24T15:03:01.019Z,33.15
2022-10-24T15:08:34.910Z,35.40
2022-10-24T15:13:33.567Z,27.85
2022-10-24T15:18:32.439Z,33.33
2022-10-24T15:23:37.570Z,31.27
2022-10-24T15:29:17.711Z,27.10
2022-10-24T15:34:18.510Z,29.55
2022-10-24T15:39:23.205Z,29.75
2022-10-24T15:45:13.547Z,30.92
2022-10-24T15:50:03.519Z,42.15
2022-10-24T15:55:06.057Z,47.00
2022-10-24T16:00:09.605Z,47.65
2022-10-24T16:05:29.412Z,22.02
2022-10-24T16:11:09.980Z,26.80
2022-10-24T16:16:19.918Z,22.20
2022-10-24T16:21:26.744Z,24.42
2022-10-24T16:26:23.964Z,27.42
2022-10-24T16:31:40.037Z,44.10
2022-10-24T16:36:40.335Z,299.73
2022-10-24T16:41:37.403Z,290.90
2022-10-24T16:46:37.568Z,192.45
2022-10-24T16:52:43.387Z,102.68
2022-10-24T16:58:05.631Z,66.50
2022-10-24T17:03:03.610Z,288.40
2022-10-24T17:08:03.451Z,42.40
2022-10-24T17:13:07.153Z,27.85
2022-10-24T17:18:26.549Z,29.10
2022-10-24T17:23:24.909Z,25.95
2022-10-24T17:28:33.077Z,41.92
2022-10-24T17:33:41.852Z,25.83
2022-10-24T17:44:47.693Z,22.25
2022-10-24T17:50:09.738Z,24.75
2022-10-24T17:55:41.009Z,21.52
2022-10-24T18:00:39.202Z,20.00
2022-10-24T18:05:38.439Z,31.73
2022-10-24T18:10:37.629Z,22.08
2022-10-24T18:15:35.886Z,18.35
2022-10-24T18:20:42.112Z,20.40
2022-10-24T18:25:39.303Z,15.30
2022-10-24T18:30:36.694Z,15.57
2022-10-24T18:35:43.790Z,19.70
2022-10-24T18:40:45.199Z,26.75
2022-10-24T18:45:43.165Z,22.80
2022-10-24T18:50:50.391Z,22.73
2022-10-24T18:55:48.827Z,23.08
2022-10-24T19:00:47.116Z,21.80
2022-10-24T19:05:54.611Z,20.95
2022-10-24T19:11:00.202Z,26.77
2022-10-24T19:16:02.742Z,16.08
2022-10-24T19:20:59.972Z,13.80
2022-10-24T19:25:58.161Z,12.15
2022-10-24T19:31:01.287Z,9.93
2022-10-24T19:36:03.387Z,9.35
2022-10-24T19:41:06.128Z,8.30
2022-10-24T19:46:24.923Z,11.93
2022-10-24T19:51:33.743Z,12.95
2022-10-24T19:56:32.792Z,15.55
2022-10-24T20:01:30.152Z,14.88
2022-10-24T20:06:27.585Z,11.20
2022-10-24T20:11:25.906Z,10.15
2022-10-24T20:16:23.807Z,11.25
2022-10-24T20:21:20.854Z,12.63
2022-10-24T20:26:20.397Z,13.10
2022-10-24T20:31:37.653Z,9.57
2022-10-24T20:36:42.292Z,7.20
2022-10-24T20:41:39.647Z,13.30
2022-10-24T20:46:37.425Z,8.55
2022-10-24T20:51:34.391Z,7.90
2022-10-24T20:56:31.342Z,8.13
2022-10-24T21:01:43.617Z,13.48
2022-10-24T21:06:40.742Z,12.52
2022-10-24T21:11:38.336Z,8.02
2022-10-24T21:16:37.894Z,10.63
2022-10-24T21:21:35.657Z,11.60
2022-10-24T21:26:33.109Z,8.90
2022-10-24T21:31:33.780Z,10.18
2022-10-24T21:36:38.739Z,11.32
2022-10-24T21:41:39.864Z,6.55
2022-10-24T21:46:36.924Z,10.30
2022-10-24T21:51:36.256Z,10.63
2022-10-24T21:56:36.139Z,10.38
2022-10-24T22:01:35.686Z,11.85
2022-10-24T22:06:34.427Z,8.23
2022-10-24T22:11:33.086Z,12.88
2022-10-24T22:16:31.489Z,10.52
2022-10-24T22:21:33.408Z,8.90
2022-10-24T22:26:31.998Z,9.20
2022-10-24T22:31:30.042Z,10.07
2022-10-24T22:36:39.970Z,8.60
2022-10-24T22:41:37.527Z,10.55
2022-10-24T22:46:50.331Z,10.30
2022-10-24T22:51:48.498Z,9.88
2022-10-24T22:56:46.455Z,9.73
2022-10-24T23:01:57.386Z,9.35
2022-10-24T23:06:58.330Z,10.52
2022-10-24T23:11:58.866Z,10.00
2022-10-24T23:17:04.172Z,12.55
2022-10-24T23:22:13.351Z,11.60
2022-10-24T23:27:25.585Z,9.63
2022-10-24T23:32:25.581Z,8.30
2022-10-24T23:37:31.059Z,9.75
2022-10-24T23:42:31.236Z,9.77
2022-10-24T23:47:47.848Z,8.88
2022-10-24T23:53:11.354Z,13.20
2022-10-24T23:58:10.446Z,8.50
